createdAt,value
2023-04-15T00:00:34.509Z,99523.47
2023-04-15T00:01:37.287Z,99524.31
2023-04-15T00:02:39.831Z,99530.78
2023-04-15T00:03:42.300Z,99522.88
2023-04-15T00:04:46.265Z,99532.72
2023-04-15T00:05:48.775Z,99529.19
2023-04-15T00:06:55.112Z,99530.91
2023-04-15T00:07:58.970Z,99523.69
2023-04-15T00:09:01.405Z,99530.84
2023-04-15T00:10:04.494Z,99524.31
2023-04-15T00:11:06.902Z,99521.56
2023-04-15T00:12:09.223Z,99526.75
2023-04-15T00:13:13.792Z,99522.34
2023-04-15T00:14:16.504Z,99527.44
2023-04-15T00:15:19.272Z,99515.19
2023-04-15T00:16:22.032Z,99520.59
2023-04-15T00:17:24.437Z,99520.59
2023-04-15T00:18:26.853Z,99516.94
2023-04-15T00:19:29.725Z,99522.28
2023-04-15T00:20:32.333Z,99522.81
2023-04-15T00:21:34.600Z,99515.47
2023-04-15T00:22:36.813Z,99508.66
2023-04-15T00:23:39.042Z,99510.28
2023-04-15T00:24:41.964Z,99516.50
2023-04-15T00:25:44.903Z,99513.75
2023-04-15T00:26:47.182Z,99512.09
2023-04-15T00:27:49.706Z,99509.69
2023-04-15T00:28:52.076Z,99514.06
2023-04-15T00:29:54.673Z,99512.09
2023-04-15T00:30:57.832Z,99509.16
2023-04-15T00:32:00.394Z,99510.50
2023-04-15T00:33:03.685Z,99513.25
2023-04-15T00:34:05.898Z,99506.28
2023-04-15T00:35:09.032Z,99508.47
2023-04-15T00:36:11.320Z,99508.38
2023-04-15T00:37:13.722Z,99500.38
2023-04-15T00:38:16.037Z,99510.06
2023-04-15T00:39:18.310Z,99502.81
2023-04-15T00:40:21.786Z,99510.91
2023-04-15T00:41:25.594Z,99508.94
2023-04-15T00:42:28.111Z,99510.66
2023-04-15T00:43:30.391Z,99505.94
2023-04-15T00:44:33.721Z,99509.47
2023-04-15T00:45:37.393Z,99505.31
2023-04-15T00:46:40.441Z,99504.78
2023-04-15T00:47:44.266Z,99502.03
2023-04-15T00:48:47.525Z,99504.78
2023-04-15T00:49:49.839Z,99499.97
2023-04-15T00:50:53.603Z,99505.38
2023-04-15T00:51:56.312Z,99503.59
2023-04-15T00:52:59.704Z,99502.81
2023-04-15T00:54:03.553Z,99498.31
2023-04-15T00:55:06.955Z,99498.81
2023-04-15T00:56:14.901Z,99501.56
2023-04-15T00:57:27.688Z,99505.13
2023-04-15T00:58:36.473Z,99495.34
2023-04-15T00:59:54.784Z,99489.84
2023-04-15T01:01:01.977Z,99495.91
2023-04-15T01:02:05.845Z,99499.09
2023-04-15T01:03:08.894Z,99495.38
2023-04-15T01:04:12.337Z,99500.31
2023-04-15T01:05:18.559Z,99494.00
2023-04-15T01:06:21.490Z,99492.63
2023-04-15T01:07:23.967Z,99494.97
2023-04-15T01:08:29.359Z,99493.41
2023-04-15T01:09:33.309Z,99493.69
2023-04-15T01:10:36.084Z,99496.25
2023-04-15T01:11:39.159Z,99495.66
2023-04-15T01:12:44.603Z,99487.63
2023-04-15T01:13:47.763Z,99497.63
2023-04-15T01:14:50.012Z,99492.44
2023-04-15T01:15:53.363Z,99495.03
2023-04-15T01:16:55.861Z,99488.97
2023-04-15T01:17:59.430Z,99485.72
2023-04-15T01:19:02.360Z,99492.69
2023-04-15T01:20:06.102Z,99490.78
2023-04-15T01:21:08.635Z,99489.16
2023-04-15T01:22:11.155Z,99490.72
2023-04-15T01:23:14.329Z,99492.75
2023-04-15T01:24:18.548Z,99489.22
2023-04-15T01:25:31.376Z,99495.44
2023-04-15T01:26:33.626Z,99490.72
2023-04-15T01:27:39.215Z,99490.44
2023-04-15T01:28:41.721Z,99490.44
2023-04-15T01:29:44.109Z,99488.56
2023-04-15T01:30:47.963Z,99493.06
2023-04-15T01:31:55.213Z,99492.19
2023-04-15T01:32:57.630Z,99489.59
2023-04-15T01:34:01.436Z,99495.13
2023-04-15T01:35:03.837Z,99493.16
2023-04-15T01:36:08.499Z,99489.69
2023-04-15T01:37:10.900Z,99486.88
2023-04-15T01:38:13.617Z,99490.25
2023-04-15T01:39:17.011Z,99484.63
2023-04-15T01:40:19.219Z,99489.13
2023-04-15T01:41:28.334Z,99489.13
2023-04-15T01:42:31.878Z,99487.22
2023-04-15T01:43:37.117Z,99492.47
2023-04-15T01:44:39.565Z,99485.22
2023-04-15T01:45:41.843Z,99479.56
2023-04-15T01:46:45.331Z,99486.09
2023-04-15T01:47:47.886Z,99481.25
2023-04-15T01:48:50.301Z,99483.50
2023-04-15T01:49:52.691Z,99485.06
2023-04-15T01:50:58.082Z,99485.22
2023-04-15T01:52:00.642Z,99487.38
2023-04-15T01:53:02.917Z,99487.47
2023-04-15T01:54:05.152Z,99488.06
2023-04-15T01:55:08.602Z,99481.41
2023-04-15T01:56:10.959Z,99479.72
2023-04-15T01:57:13.526Z,99481.69
2023-04-15T01:58:15.753Z,99480.22
2023-04-15T01:59:18.791Z,99486.44
2023-04-15T02:00:22.311Z,99486.88
2023-04-15T02:01:25.071Z,99473.66
2023-04-15T02:02:27.787Z,99482.88
2023-04-15T02:03:32.436Z,99486.34
2023-04-15T02:04:34.961Z,99479.34
2023-04-15T02:05:37.290Z,99485.13
2023-04-15T02:06:39.578Z,99474.34
2023-04-15T02:07:43.555Z,99482.31
2023-04-15T02:08:45.764Z,99475.81
2023-04-15T02:09:47.996Z,99475.91
2023-04-15T02:10:50.988Z,99473.84
2023-04-15T02:11:54.310Z,99476.34
2023-04-15T02:12:57.052Z,99481.88
2023-04-15T02:14:07.008Z,99470.81
2023-04-15T02:15:10.343Z,99475.03
2023-04-15T02:16:19.675Z,99476.59
2023-04-15T02:17:22.033Z,99476.16
2023-04-15T02:18:24.372Z,99466.47
2023-04-15T02:19:26.763Z,99470.91
2023-04-15T02:20:30.802Z,99481.59
2023-04-15T02:21:35.398Z,99476.25
2023-04-15T02:22:38.503Z,99475.41
2023-04-15T02:23:41.060Z,99474.28
2023-04-15T02:24:43.259Z,99485.06
2023-04-15T02:25:53.745Z,99482.53
2023-04-15T02:26:56.522Z,99483.94
2023-04-15T02:27:58.922Z,99484.53
2023-04-15T02:29:01.337Z,99481.41
2023-04-15T02:30:04.101Z,99486.59
2023-04-15T02:31:07.860Z,99484.19
2023-04-15T02:32:11.239Z,99490.75
2023-04-15T02:33:13.595Z,99486.59
2023-04-15T02:34:15.904Z,99488.16
2023-04-15T02:35:21.050Z,99486.53
2023-04-15T02:36:24.020Z,99492.66
2023-04-15T02:37:28.673Z,99488.06
2023-04-15T02:38:32.188Z,99490.50
2023-04-15T02:39:34.619Z,99487.13
2023-04-15T02:40:37.366Z,99484.19
2023-04-15T02:41:39.648Z,99485.13
2023-04-15T02:42:42.916Z,99487.72
2023-04-15T02:43:47.911Z,99492.75
2023-04-15T02:44:50.612Z,99500.81
2023-04-15T02:45:53.962Z,99495.63
2023-04-15T02:46:56.652Z,99494.13
2023-04-15T02:47:59.333Z,99496.72
2023-04-15T02:49:03.505Z,99494.59
2023-04-15T02:50:12.786Z,99503.19
2023-04-15T02:51:18.402Z,99500.66
2023-04-15T02:52:20.558Z,99495.09
2023-04-15T02:53:22.971Z,99488.34
2023-04-15T02:54:26.120Z,99500.38
2023-04-15T02:55:29.168Z,99498.97
2023-04-15T02:56:31.696Z,99495.75
2023-04-15T02:57:35.049Z,99501.22
2023-04-15T02:58:43.311Z,99501.53
2023-04-15T02:59:45.486Z,99500.09
2023-04-15T03:00:47.903Z,99500.91
2023-04-15T03:01:50.227Z,99496.53
2023-04-15T03:02:57.738Z,99488.34
2023-04-15T03:04:00.765Z,99490.53
2023-04-15T03:05:03.266Z,99486.31
2023-04-15T03:06:08.855Z,99482.16
2023-04-15T03:07:11.092Z,99486.50
2023-04-15T03:08:15.006Z,99487.34
2023-04-15T03:09:17.652Z,99489.00
2023-04-15T03:10:20.871Z,99490.47
2023-04-15T03:11:23.289Z,99490.88
2023-04-15T03:12:26.152Z,99494.31
2023-04-15T03:13:31.894Z,99490.81
2023-04-15T03:14:37.927Z,99479.47
2023-04-15T03:15:40.276Z,99479.34
2023-04-15T03:16:42.588Z,99482.22
2023-04-15T03:17:44.819Z,99481.03
2023-04-15T03:18:48.316Z,99489.31
2023-04-15T03:19:50.708Z,99483.78
2023-04-15T03:20:53.254Z,99490.16
2023-04-15T03:21:55.625Z,99487.81
2023-04-15T03:22:58.183Z,99492.03
2023-04-15T03:24:01.604Z,99490.03
2023-04-15T03:25:07.715Z,99496.41
2023-04-15T03:26:09.964Z,99497.06
2023-04-15T03:27:13.223Z,99493.81
2023-04-15T03:28:15.768Z,99489.09
2023-04-15T03:29:18.334Z,99489.25
2023-04-15T03:30:21.585Z,99479.31
2023-04-15T03:31:24.298Z,99485.97
2023-04-15T03:32:27.222Z,99488.00
2023-04-15T03:33:29.730Z,99489.38
2023-04-15T03:34:32.363Z,99487.28
2023-04-15T03:35:34.945Z,99492.13
2023-04-15T03:36:37.678Z,99493.06
2023-04-15T03:37:40.030Z,99488.59
2023-04-15T03:38:42.748Z,99487.94
2023-04-15T03:39:45.725Z,99496.75
2023-04-15T03:40:47.990Z,99482.47
2023-04-15T03:41:50.509Z,99481.94
2023-04-15T03:42:52.893Z,99481.13
2023-04-15T03:43:55.103Z,99483.63
2023-04-15T03:44:57.675Z,99487.72
2023-04-15T03:46:01.750Z,99486.25
2023-04-15T03:47:04.227Z,99482.00
2023-04-15T03:48:16.474Z,99485.69
2023-04-15T03:49:20.169Z,99491.66
2023-04-15T03:50:22.773Z,99482.31
2023-04-15T03:51:25.001Z,99485.38
2023-04-15T03:52:27.203Z,99487.69
2023-04-15T03:53:33.105Z,99488.09
2023-04-15T03:54:35.520Z,99482.00
2023-04-15T03:55:38.011Z,99488.09
2023-04-15T03:56:40.214Z,99485.19
2023-04-15T03:57:42.496Z,99488.44
2023-04-15T03:58:45.046Z,99488.22
2023-04-15T03:59:48.171Z,99496.59
2023-04-15T04:00:50.512Z,99491.84
2023-04-15T04:01:52.859Z,99495.63
2023-04-15T04:02:55.571Z,99493.31
2023-04-15T04:03:58.093Z,99491.38
2023-04-15T04:05:04.040Z,99483.22
2023-04-15T04:06:09.340Z,99493.44
2023-04-15T04:07:18.397Z,99490.13
2023-04-15T04:08:21.734Z,99490.84
2023-04-15T04:09:23.994Z,99500.44
2023-04-15T04:10:29.972Z,99495.09
2023-04-15T04:11:33.468Z,99495.09
2023-04-15T04:12:35.986Z,99494.16
2023-04-15T04:13:38.790Z,99498.28
2023-04-15T04:14:41.109Z,99496.09
2023-04-15T04:15:43.399Z,99496.09
2023-04-15T04:16:45.937Z,99492.66
2023-04-15T04:17:48.416Z,99494.84
2023-04-15T04:18:50.978Z,99493.34
2023-04-15T04:19:53.254Z,99494.75
2023-04-15T04:20:55.602Z,99489.50
2023-04-15T04:21:57.889Z,99489.88
2023-04-15T04:23:00.139Z,99490.19
2023-04-15T04:24:02.454Z,99495.22
2023-04-15T04:25:04.933Z,99487.41
2023-04-15T04:26:07.404Z,99493.47
2023-04-15T04:27:09.617Z,99489.94
2023-04-15T04:28:13.233Z,99490.59
2023-04-15T04:29:17.915Z,99497.31
2023-04-15T04:30:20.358Z,99495.09
2023-04-15T04:31:22.655Z,99499.81
2023-04-15T04:32:25.111Z,99496.16
2023-04-15T04:33:27.376Z,99490.28
2023-04-15T04:34:30.255Z,99489.34
2023-04-15T04:35:35.074Z,99495.53
2023-04-15T04:36:37.325Z,99491.19
2023-04-15T04:37:39.708Z,99493.03
2023-04-15T04:38:42.132Z,99492.88
2023-04-15T04:39:44.347Z,99499.34
2023-04-15T04:40:46.838Z,99497.03
2023-04-15T04:41:49.779Z,99496.47
2023-04-15T04:42:52.047Z,99499.41
2023-04-15T04:43:56.481Z,99505.00
2023-04-15T04:44:58.678Z,99502.72
2023-04-15T04:46:01.411Z,99499.47
2023-04-15T04:47:03.688Z,99501.44
2023-04-15T04:48:07.320Z,99507.00
2023-04-15T04:49:09.814Z,99506.13
2023-04-15T04:50:12.182Z,99502.53
2023-04-15T04:51:14.440Z,99507.09
2023-04-15T04:52:16.745Z,99504.03
2023-04-15T04:53:19.284Z,99504.63
2023-04-15T04:54:21.680Z,99500.75
2023-04-15T04:55:23.916Z,99503.63
2023-04-15T04:56:26.581Z,99507.59
2023-04-15T04:57:28.791Z,99509.56
2023-04-15T04:58:31.536Z,99511.44
2023-04-15T04:59:34.063Z,99509.63
2023-04-15T05:00:37.958Z,99513.53
2023-04-15T05:01:41.276Z,99504.59
2023-04-15T05:02:44.220Z,99507.41
2023-04-15T05:03:46.839Z,99507.41
2023-04-15T05:04:50.413Z,99501.94
2023-04-15T05:05:53.114Z,99506.97
2023-04-15T05:06:55.582Z,99502.88
2023-04-15T05:07:57.856Z,99504.38
2023-04-15T05:09:02.782Z,99507.88
2023-04-15T05:10:06.694Z,99509.50
2023-04-15T05:11:09.291Z,99508.94
2023-04-15T05:12:15.033Z,99516.41
2023-04-15T05:13:17.286Z,99516.16
2023-04-15T05:14:19.765Z,99509.69
2023-04-15T05:15:22.708Z,99510.41
2023-04-15T05:16:26.136Z,99505.78
2023-04-15T05:17:28.407Z,99514.03
2023-04-15T05:18:31.002Z,99519.88
2023-04-15T05:19:33.221Z,99513.56
2023-04-15T05:20:35.444Z,99515.28
2023-04-15T05:21:39.547Z,99515.91
2023-04-15T05:22:41.926Z,99510.09
2023-04-15T05:23:44.188Z,99511.53
2023-04-15T05:24:46.612Z,99510.75
2023-04-15T05:25:49.052Z,99514.31
2023-04-15T05:26:51.558Z,99510.72
2023-04-15T05:27:53.941Z,99513.94
2023-04-15T05:28:56.150Z,99516.94
2023-04-15T05:29:58.397Z,99517.53
2023-04-15T05:31:00.911Z,99517.16
2023-04-15T05:32:03.116Z,99511.41
2023-04-15T05:33:05.459Z,99516.19
2023-04-15T05:34:07.731Z,99515.91
2023-04-15T05:35:09.972Z,99517.72
2023-04-15T05:36:12.805Z,99517.78
2023-04-15T05:37:18.150Z,99519.72
2023-04-15T05:38:20.435Z,99515.63
2023-04-15T05:39:22.678Z,99518.16
2023-04-15T05:40:24.986Z,99514.00
2023-04-15T05:41:27.173Z,99515.06
2023-04-15T05:42:29.649Z,99526.84
2023-04-15T05:43:31.929Z,99522.88
2023-04-15T05:44:34.175Z,99527.00
2023-04-15T05:45:36.532Z,99527.69
2023-04-15T05:46:38.995Z,99529.75
2023-04-15T05:47:41.316Z,99529.19
2023-04-15T05:48:43.567Z,99520.66
2023-04-15T05:49:45.847Z,99525.81
2023-04-15T05:50:48.331Z,99525.56
2023-04-15T05:51:50.856Z,99529.00
2023-04-15T05:52:53.089Z,99529.53
2023-04-15T05:53:55.615Z,99527.66
2023-04-15T05:54:57.949Z,99533.72
2023-04-15T05:56:00.268Z,99529.63
2023-04-15T05:57:03.056Z,99539.50
2023-04-15T05:58:05.275Z,99534.16
2023-04-15T05:59:07.629Z,99528.97
2023-04-15T06:00:10.762Z,99529.59
2023-04-15T06:01:12.984Z,99537.44
2023-04-15T06:02:15.556Z,99549.00
2023-04-15T06:03:18.115Z,99545.78
2023-04-15T06:04:20.598Z,99547.97
2023-04-15T06:05:23.137Z,99546.22
2023-04-15T06:06:25.347Z,99543.31
2023-04-15T06:07:27.610Z,99551.91
2023-04-15T06:08:29.897Z,99551.91
2023-04-15T06:09:32.333Z,99549.94
2023-04-15T06:10:36.802Z,99546.16
2023-04-15T06:11:39.247Z,99547.97
2023-04-15T06:12:41.773Z,99555.47
2023-04-15T06:13:44.083Z,99553.63
2023-04-15T06:14:46.624Z,99554.28
2023-04-15T06:15:49.525Z,99556.25
2023-04-15T06:16:52.320Z,99558.06
2023-04-15T06:17:54.601Z,99562.06
2023-04-15T06:18:56.853Z,99563.00
2023-04-15T06:19:59.063Z,99564.00
2023-04-15T06:21:01.360Z,99567.72
2023-04-15T06:22:03.881Z,99571.75
2023-04-15T06:23:06.444Z,99566.59
2023-04-15T06:24:08.691Z,99567.09
2023-04-15T06:25:11.196Z,99562.22
2023-04-15T06:26:13.398Z,99564.97
2023-04-15T06:27:15.902Z,99564.00
2023-04-15T06:28:18.155Z,99569.34
2023-04-15T06:29:20.593Z,99568.31
2023-04-15T06:30:24.408Z,99565.75
2023-04-15T06:31:27.320Z,99557.94
2023-04-15T06:32:29.872Z,99566.47
2023-04-15T06:33:32.266Z,99564.97
2023-04-15T06:34:37.692Z,99563.78
2023-04-15T06:35:40.590Z,99567.09
2023-04-15T06:36:43.063Z,99567.78
2023-04-15T06:37:45.732Z,99562.19
2023-04-15T06:38:48.036Z,99561.41
2023-04-15T06:39:51.748Z,99567.19
2023-04-15T06:40:54.050Z,99574.69
2023-04-15T06:41:56.885Z,99571.03
2023-04-15T06:42:59.462Z,99578.56
2023-04-15T06:44:04.250Z,99575.13
2023-04-15T06:45:07.043Z,99575.44
2023-04-15T06:46:09.536Z,99576.06
2023-04-15T06:47:14.688Z,99586.25
2023-04-15T06:48:18.043Z,99579.84
2023-04-15T06:49:20.220Z,99576.44
2023-04-15T06:50:22.958Z,99577.22
2023-04-15T06:51:26.745Z,99579.81
2023-04-15T06:52:29.616Z,99581.47
2023-04-15T06:53:32.250Z,99576.50
2023-04-15T06:54:34.544Z,99578.38
2023-04-15T06:55:37.037Z,99585.41
2023-04-15T06:56:39.258Z,99579.81
2023-04-15T06:57:41.656Z,99578.34
2023-04-15T06:58:43.917Z,99588.91
2023-04-15T06:59:47.040Z,99584.38
2023-04-15T07:00:49.393Z,99582.41
2023-04-15T07:01:52.006Z,99591.84
2023-04-15T07:02:55.375Z,99583.13
2023-04-15T07:03:59.817Z,99588.31
2023-04-15T07:05:02.083Z,99591.94
2023-04-15T07:06:06.640Z,99587.59
2023-04-15T07:07:11.548Z,99590.47
2023-04-15T07:08:14.131Z,99586.34
2023-04-15T07:09:16.337Z,99588.63
2023-04-15T07:10:18.729Z,99596.59
2023-04-15T07:11:23.382Z,99593.91
2023-04-15T07:12:26.863Z,99598.31
2023-04-15T07:13:31.972Z,99597.25
2023-04-15T07:14:34.209Z,99598.03
2023-04-15T07:15:39.021Z,99593.41
2023-04-15T07:16:41.822Z,99608.50
2023-04-15T07:17:44.107Z,99608.97
2023-04-15T07:18:47.050Z,99597.91
2023-04-15T07:19:49.348Z,99599.84
2023-04-15T07:20:52.200Z,99593.72
2023-04-15T07:21:54.536Z,99607.13
2023-04-15T07:22:57.610Z,99605.16
2023-04-15T07:23:59.986Z,99595.06
2023-04-15T07:25:02.465Z,99598.19
2023-04-15T07:26:04.813Z,99599.09
2023-04-15T07:27:07.511Z,99601.97
2023-04-15T07:28:09.895Z,99597.19
2023-04-15T07:29:12.320Z,99601.41
2023-04-15T07:30:14.959Z,99596.38
2023-04-15T07:31:17.514Z,99606.91
2023-04-15T07:32:20.185Z,99599.31
2023-04-15T07:33:23.480Z,99597.13
2023-04-15T07:34:25.910Z,99606.56
2023-04-15T07:35:29.382Z,99600.56
2023-04-15T07:36:31.592Z,99598.81
2023-04-15T07:37:33.811Z,99605.94
2023-04-15T07:38:36.048Z,99602.94
2023-04-15T07:39:38.475Z,99599.03
2023-04-15T07:40:40.939Z,99601.03
2023-04-15T07:41:43.483Z,99603.25
2023-04-15T07:42:46.186Z,99598.22
2023-04-15T07:43:49.120Z,99600.59
2023-04-15T07:44:52.125Z,99598.84
2023-04-15T07:45:57.095Z,99604.31
2023-04-15T07:46:59.571Z,99610.72
2023-04-15T07:48:03.142Z,99610.50
2023-04-15T07:49:05.665Z,99607.84
2023-04-15T07:50:09.519Z,99609.72
2023-04-15T07:51:12.963Z,99618.06
2023-04-15T07:52:15.361Z,99610.88
2023-04-15T07:53:17.595Z,99612.91
2023-04-15T07:54:20.287Z,99619.72
2023-04-15T07:55:23.470Z,99620.63
2023-04-15T07:56:26.520Z,99616.91
2023-04-15T07:57:30.118Z,99619.38
2023-04-15T07:58:32.370Z,99618.97
2023-04-15T07:59:34.678Z,99622.97
2023-04-15T08:00:39.500Z,99620.00
2023-04-15T08:01:42.566Z,99632.09
2023-04-15T08:02:46.897Z,99624.31
2023-04-15T08:03:49.635Z,99627.47
2023-04-15T08:04:53.246Z,99619.84
2023-04-15T08:05:55.562Z,99623.91
2023-04-15T08:06:58.502Z,99630.22
2023-04-15T08:08:05.879Z,99629.44
2023-04-15T08:09:08.305Z,99629.22
2023-04-15T08:10:11.052Z,99635.69
2023-04-15T08:11:13.525Z,99633.00
2023-04-15T08:12:16.040Z,99634.91
2023-04-15T08:13:18.741Z,99643.66
2023-04-15T08:14:25.030Z,99634.63
2023-04-15T08:15:28.460Z,99643.53
2023-04-15T08:16:30.788Z,99636.28
2023-04-15T08:17:33.631Z,99641.16
2023-04-15T08:18:36.079Z,99644.47
2023-04-15T08:19:38.532Z,99644.31
2023-04-15T08:20:40.767Z,99643.50
2023-04-15T08:21:43.084Z,99643.56
2023-04-15T08:22:46.475Z,99648.22
2023-04-15T08:23:50.571Z,99640.13
2023-04-15T08:24:52.775Z,99650.19
2023-04-15T08:25:54.976Z,99640.50
2023-04-15T08:26:57.671Z,99645.59
2023-04-15T08:28:07.252Z,99653.88
2023-04-15T08:29:09.549Z,99652.38
2023-04-15T08:30:12.425Z,99653.56
2023-04-15T08:31:16.407Z,99656.44
2023-04-15T08:32:19.222Z,99649.13
2023-04-15T08:33:21.595Z,99663.72
2023-04-15T08:34:24.332Z,99665.38
2023-04-15T08:35:26.576Z,99657.50
2023-04-15T08:36:28.831Z,99657.28
2023-04-15T08:37:31.212Z,99661.38
2023-04-15T08:38:33.851Z,99669.13
2023-04-15T08:39:36.250Z,99663.22
2023-04-15T08:40:43.016Z,99656.06
2023-04-15T08:41:59.243Z,99662.41
2023-04-15T08:43:03.889Z,99667.63
2023-04-15T08:44:06.706Z,99663.72
2023-04-15T08:45:11.433Z,99671.22
2023-04-15T08:46:14.087Z,99667.78
2023-04-15T08:47:20.882Z,99672.59
2023-04-15T08:48:26.519Z,99669.41
2023-04-15T08:49:31.160Z,99666.41
2023-04-15T08:50:33.637Z,99667.97
2023-04-15T08:51:36.086Z,99672.69
2023-04-15T08:52:39.114Z,99673.25
2023-04-15T08:53:41.812Z,99669.97
2023-04-15T08:54:44.088Z,99672.75
2023-04-15T08:55:50.831Z,99673.59
2023-04-15T08:56:56.179Z,99675.16
2023-04-15T08:57:58.940Z,99683.50
2023-04-15T08:59:02.025Z,99679.97
2023-04-15T09:00:05.527Z,99681.94
2023-04-15T09:01:08.596Z,99689.59
2023-04-15T09:02:12.240Z,99687.31
2023-04-15T09:03:14.799Z,99684.88
2023-04-15T09:04:17.383Z,99687.16
2023-04-15T09:05:21.655Z,99685.59
2023-04-15T09:06:24.291Z,99692.25
2023-04-15T09:07:27.680Z,99692.09
2023-04-15T09:08:29.916Z,99690.16
2023-04-15T09:09:32.861Z,99683.41
2023-04-15T09:10:35.757Z,99685.81
2023-04-15T09:11:40.385Z,99695.16
2023-04-15T09:12:42.850Z,99690.53
2023-04-15T09:13:45.613Z,99693.69
2023-04-15T09:14:49.491Z,99696.03
2023-04-15T09:15:53.688Z,99698.00
2023-04-15T09:17:01.379Z,99692.56
2023-04-15T09:18:04.307Z,99694.94
2023-04-15T09:19:34.384Z,99691.94
2023-04-15T09:20:44.664Z,99705.31
2023-04-15T09:21:48.028Z,99700.81
2023-04-15T09:22:51.144Z,99700.13
2023-04-15T09:23:59.649Z,99697.94
2023-04-15T09:25:04.211Z,99703.75
2023-04-15T09:26:07.196Z,99706.03
2023-04-15T09:27:11.434Z,99699.19
2023-04-15T09:28:13.621Z,99701.00
2023-04-15T09:29:18.527Z,99702.41
2023-04-15T09:30:21.293Z,99709.47
2023-04-15T09:31:31.528Z,99709.94
2023-04-15T09:32:34.935Z,99705.38
2023-04-15T09:33:56.149Z,99707.59
2023-04-15T09:34:58.654Z,99709.66
2023-04-15T09:36:05.705Z,99709.88
2023-04-15T09:37:09.194Z,99713.44
2023-04-15T09:38:14.041Z,99719.66
2023-04-15T09:39:16.201Z,99720.19
2023-04-15T09:40:41.184Z,99722.16
2023-04-15T09:41:44.650Z,99730.97
2023-04-15T09:42:56.726Z,99733.97
2023-04-15T09:43:58.997Z,99730.75
2023-04-15T09:45:13.689Z,99735.06
2023-04-15T09:46:16.204Z,99733.03
2023-04-15T09:47:28.193Z,99738.69
2023-04-15T09:48:31.511Z,99739.88
2023-04-15T09:49:34.178Z,99734.84
2023-04-15T09:50:41.250Z,99737.41
2023-04-15T09:51:54.142Z,99736.09
2023-04-15T09:53:03.975Z,99733.97
2023-04-15T09:54:07.385Z,99731.47
2023-04-15T09:55:10.562Z,99741.75
2023-04-15T09:56:12.899Z,99736.09
2023-04-15T09:57:15.986Z,99735.06
2023-04-15T09:58:38.761Z,99742.19
2023-04-15T09:59:41.399Z,99738.06
2023-04-15T10:00:44.036Z,99745.53
2023-04-15T10:01:47.116Z,99744.41
2023-04-15T10:02:50.182Z,99739.75
2023-04-15T10:03:53.628Z,99744.94
2023-04-15T10:04:56.757Z,99737.78
2023-04-15T10:06:01.067Z,99746.94
2023-04-15T10:07:05.294Z,99753.19
2023-04-15T10:08:08.648Z,99750.09
2023-04-15T10:09:10.862Z,99754.75
2023-04-15T10:10:14.291Z,99747.41
2023-04-15T10:11:18.784Z,99752.78
2023-04-15T10:12:22.780Z,99757.25
2023-04-15T10:13:26.424Z,99761.06
2023-04-15T10:14:31.341Z,99756.56
2023-04-15T10:15:34.415Z,99755.28
2023-04-15T10:16:43.132Z,99752.28
2023-04-15T10:17:45.674Z,99756.16
2023-04-15T10:18:53.368Z,99753.91
2023-04-15T10:19:56.203Z,99753.91
2023-04-15T10:21:01.343Z,99754.44
2023-04-15T10:22:03.733Z,99757.81
2023-04-15T10:23:09.019Z,99764.47
2023-04-15T10:24:13.140Z,99759.19
2023-04-15T10:25:15.780Z,99754.22
2023-04-15T10:26:18.017Z,99760.66
2023-04-15T10:27:21.039Z,99755.25
2023-04-15T10:28:23.586Z,99764.56
2023-04-15T10:29:29.112Z,99766.47
2023-04-15T10:30:32.760Z,99762.66
2023-04-15T10:31:38.171Z,99757.75
2023-04-15T10:32:41.544Z,99757.28
2023-04-15T10:33:44.820Z,99757.28
2023-04-15T10:34:49.212Z,99760.09
2023-04-15T10:35:53.944Z,99765.63
2023-04-15T10:36:57.918Z,99765.09
2023-04-15T10:38:00.243Z,99771.03
2023-04-15T10:39:02.677Z,99760.31
2023-04-15T10:40:24.686Z,99779.31
2023-04-15T10:41:31.085Z,99771.75
2023-04-15T10:42:36.475Z,99765.56
2023-04-15T10:43:38.925Z,99768.00
2023-04-15T10:44:44.885Z,99773.41
2023-04-15T10:45:48.720Z,99771.59
2023-04-15T10:46:51.960Z,99767.06
2023-04-15T10:48:03.678Z,99769.50
2023-04-15T10:49:27.975Z,99778.72
2023-04-15T10:50:32.608Z,99773.34
2023-04-15T10:51:41.607Z,99768.53
2023-04-15T10:52:43.971Z,99775.72
2023-04-15T10:53:46.348Z,99786.00
2023-04-15T10:54:48.822Z,99778.63
2023-04-15T10:55:51.246Z,99782.78
2023-04-15T10:57:08.683Z,99782.75
2023-04-15T10:58:11.233Z,99777.75
2023-04-15T10:59:13.444Z,99781.44
2023-04-15T11:00:17.380Z,99776.84
2023-04-15T11:01:23.237Z,99777.78
2023-04-15T11:03:12.278Z,99782.69
2023-04-15T11:04:14.857Z,99787.91
2023-04-15T11:05:18.736Z,99783.56
2023-04-15T11:06:21.048Z,99788.59
2023-04-15T11:07:44.774Z,99791.19
2023-04-15T11:08:56.146Z,99789.63
2023-04-15T11:09:58.503Z,99794.53
2023-04-15T11:11:00.708Z,99786.06
2023-04-15T11:12:08.642Z,99789.13
2023-04-15T11:13:10.971Z,99793.63
2023-04-15T11:14:16.445Z,99785.06
2023-04-15T11:15:33.936Z,99785.47
2023-04-15T11:16:45.064Z,99784.88
2023-04-15T11:17:47.564Z,99792.06
2023-04-15T11:18:56.133Z,99794.00
2023-04-15T11:19:58.829Z,99795.56
2023-04-15T11:21:03.791Z,99797.66
2023-04-15T11:22:12.733Z,99793.94
2023-04-15T11:23:16.098Z,99798.38
2023-04-15T11:24:27.185Z,99794.91
2023-04-15T11:25:31.574Z,99797.97
2023-04-15T11:26:34.458Z,99799.63
2023-04-15T11:27:36.636Z,99806.53
2023-04-15T11:28:41.465Z,99799.13
2023-04-15T11:29:44.245Z,99808.34
2023-04-15T11:30:46.503Z,99807.56
2023-04-15T11:31:49.703Z,99805.09
2023-04-15T11:32:55.327Z,99807.28
2023-04-15T11:34:02.230Z,99810.19
2023-04-15T11:35:04.725Z,99806.44
2023-04-15T11:36:08.149Z,99810.19
2023-04-15T11:37:10.483Z,99808.06
2023-04-15T11:38:14.218Z,99812.19
2023-04-15T11:39:16.756Z,99818.41
2023-04-15T11:40:29.660Z,99821.69
2023-04-15T11:41:31.937Z,99816.16
2023-04-15T11:42:48.607Z,99819.28
2023-04-15T11:43:52.815Z,99821.88
2023-04-15T11:45:09.590Z,99828.28
2023-04-15T11:46:11.901Z,99830.69
2023-04-15T11:47:24.312Z,99829.16
2023-04-15T11:48:31.711Z,99834.69
2023-04-15T11:49:34.997Z,99828.19
2023-04-15T11:50:40.635Z,99832.16
2023-04-15T11:51:43.246Z,99825.63
2023-04-15T11:52:59.586Z,99834.47
2023-04-15T11:54:02.018Z,99830.72
2023-04-15T11:55:04.599Z,99835.16
2023-04-15T11:56:08.976Z,99832.84
2023-04-15T11:57:11.395Z,99838.88
2023-04-15T11:58:24.106Z,99834.94
2023-04-15T11:59:30.180Z,99832.25
2023-04-15T12:00:40.114Z,99835.72
2023-04-15T12:01:44.098Z,99831.84
2023-04-15T12:02:47.465Z,99837.81
2023-04-15T12:03:50.326Z,99844.81
2023-04-15T12:05:05.796Z,99832.31
2023-04-15T12:06:24.863Z,99832.06
2023-04-15T12:07:27.302Z,99826.47
2023-04-15T12:08:48.440Z,99829.09
2023-04-15T12:09:58.069Z,99828.63
2023-04-15T12:11:00.262Z,99832.84
2023-04-15T12:12:02.514Z,99829.94
2023-04-15T12:13:07.259Z,99827.16
2023-04-15T12:14:30.240Z,99828.91
2023-04-15T12:15:32.956Z,99826.19
2023-04-15T12:17:02.948Z,99828.31
2023-04-15T12:18:05.727Z,99831.00
2023-04-15T12:19:14.980Z,99829.66
2023-04-15T12:20:25.492Z,99839.28
2023-04-15T12:21:35.154Z,99839.75
2023-04-15T12:22:40.196Z,99837.44
2023-04-15T12:24:12.714Z,99837.53
2023-04-15T12:25:14.932Z,99842.22
2023-04-15T12:26:18.162Z,99853.44
2023-04-15T12:27:21.161Z,99853.25
2023-04-15T12:28:23.463Z,99854.97
2023-04-15T12:29:29.899Z,99858.06
2023-04-15T12:30:32.429Z,99856.88
2023-04-15T12:31:39.374Z,99859.50
2023-04-15T12:32:43.513Z,99865.72